Relevés horaires Matro (Suisse)


Relevés horaires à Matro - Vendredi 30 Janv. 2015
Heure UTC1 Température [°C] Vent [km/h] Hum. [%] Pres.4 [hPa] Visi. [Km] Nébu. [octa] Préc.5 [mm] Cond.
2m. Res. Ros. Dir.2 Vit. Moy. Raf.3
23:00 -11.5 -18 -17.3 S 13.0 16.7 18.5 62 850(1.0/3h) -- -- -- --
22:00 -11.4 -17.3 -16.0 SSE 11.1 11.1 16.7 69 850(0.9/3h) -- -- -- --
21:00 -11.2 -11.2 -18.4 ESE 3.7 13.0 18.5 55 850(0.7/3h) -- -- -- --
20:00 -11.4 -16.7 -19.4 OSO 9.3 13.0 16.7 51 850(0.5/3h) -- -- -- --
19:00 -10.7 -16.5 -19.5 NO 11.1 13.0 18.5 48 850(0.5/3h) -- -- -- --
18:00 -10.9 -17.3 -21.0 NO 13.0 37.0 57.4 43 850(0.3/3h) -- -- -- --
17:00 -11.0 -19.2 -21.9 NNO 20.4 20.4 25.9 40 850(0.5/3h) -- -- -- --
16:00 -10.7 -19.2 -21.5 NO 22.2 29.6 38.9 40 850(0.8/3h) -- -- -- --
15:00 -10.6 -19.4 -19.0 NO 24.1 37.0 57.4 50 850(1.0/3h) -- -- -- --
14:00 -10.8 -20.2 -18.7 NO 27.8 37.0 57.4 52 850(0.3/3h) -- -- -- --
13:00 -10.8 -19.9 -18.6 NNO 25.9 35.2 53.7 52 850(-0.5/3h) -- -- -- --
12:00 -10.7 -20.6 -19.2 NNO 31.5 61.1 88.9 49 850(-0.8/3h) -- -- -- --
11:00 -11.3 -21.4 -20.1 NO 31.5 42.6 64.8 48 850(-0.9/3h) -- -- -- --
10:00 -11.8 -23.5 -20.8 NNO 42.6 50.0 75.9 47 850(-0.3/3h) -- -- -- --
09:00 -12.1 -24.5 -21.7 NNO 48.2 61.1 88.9 44 850(0.3/3h) -- -- -- --
08:00 -11.7 -23.1 -23.9 NNO 40.7 59.3 83.3 35 850(0.8/3h) -- -- -- --
07:00 -11.2 -23 -25.0 NNO 46.3 61.1 88.9 31 850(0.3/3h) -- -- -- --
06:00 -9.8 -22.1 -17.6 NO 57.4 57.4 90.7 53 850(-0.4/3h) -- -- -- --
05:00 -8.9 -16.2 -13.1 NO 18.5 18.5 27.8 71 850(-1.8/3h) -- -- -- --
04:00 -9.4 -14.9 -12.9 ONO 11.1 11.1 16.7 76 850(-2.4/3h) -- -- -- --
03:00 -10.4 -14.7 -12.0 SO 7.4 24.1 31.5 88 850(-3.0/3h) -- -- -- --
02:00 -8.8 -15.2 -14.9 S 14.8 14.8 18.5 61 850(-2.8/3h) -- -- -- --
01:00 -8.7 -15.5 -9.3 S 16.7 24.1 31.5 95 850(-3.4/3h) -- -- -- --
00:00 -9.1 -18 -14.1 S 27.8 48.2 61.1 67 850(-3.9/3h) -- -- -- --

1 Coordinated Universal Time. Actuellement il est 13:00 locale et 11:00 UTC.

2 Le vent souffle depuis la direction indiquée vers la direction oposée.

3 Les rafales max. sont disponible 40 min après l'heure du relevé.

4 Pour les stations d'altitude (plus de 600m) le géopotentiel du niveau le plus proche de la pression obligatoire est indiqué.

5 Les stations disposant d'un diffuseur peuvent indiquer "trace". Cela signifie que des précipitations ont touchés le sol mais que la quantité est inférieure à 0.1 mm.

Copyright

Les données affichées sur cette page sont la propriété exclusive de Météo Suisse.

Récapitulatif de la journée
Température [°C] Vent [km/h] Ensoleillement4 [h] Precipitations totale5 [mm] Pression [Hpa]
Min1 Max.2 Moy.3 Max. Min Max.
-10.6 -9.8 33.2 90.7 4 h 12 min 0 850.0 850.0

1 Température minimale relevée entre 18:00 UTC la veille et 18:00 UTC le jour donné.

2 Température maximale relevée entre 06:00 UTC le jour donné et 06:00 UTC le lendemain.

3 Vent moyen de la journée basé sur les relevés horaires.

4 Ensoleillement en heures relevé entre 06:00 UTC la veille et 06:00 UTC le jour donné.

5 Précipitations totales tombées entre 06:00 UTC la jour donné et 06:00 UTC le lendemain.

Graphiques horaires